Time;durP1;ratioP1;P1;durP2;ratioP2;P2;SDS_P1;SDS_P2;PMS_P1;PMS_P2;Temp;Humidity;BMP_temperature;BMP_pressure;BME280_temperature;BME280_humidity;BME280_pressure;Samples;Min_cycle;Max_cycle;Signal;HPM_P1;HPM_P2
2024/01/27 00:03:37;;;;;;;94.20;51.80;;;;;;;;;;10587854;27;20482;-85
2024/01/27 00:08:39;;;;;;;91.30;50.77;;;;;;;;;;10604245;27;20418;-83
2024/01/27 00:13:41;;;;;;;94.28;50.30;;;;;;;;;;10608906;27;20444;-84
2024/01/27 00:18:47;;;;;;;86.17;48.17;;;;;;;;;;10594999;27;20479;-84
2024/01/27 00:23:49;;;;;;;85.63;47.17;;;;;;;;;;10606093;27;20399;-84
2024/01/27 00:28:52;;;;;;;83.05;46.22;;;;;;;;;;10608379;27;20462;-84
2024/01/27 00:33:55;;;;;;;87.30;47.40;;;;;;;;;;10602208;27;20430;-84
2024/01/27 00:38:58;;;;;;;85.30;46.20;;;;;;;;;;10597143;27;20812;-83
2024/01/27 00:44:00;;;;;;;81.75;45.75;;;;;;;;;;10604111;27;20401;-84
2024/01/27 00:49:04;;;;;;;83.47;44.83;;;;;;;;;;10605106;27;20449;-84
2024/01/27 00:54:07;;;;;;;82.60;44.47;;;;;;;;;;10597155;27;20896;-82
2024/01/27 00:59:09;;;;;;;81.55;44.72;;;;;;;;;;10600243;27;20455;-83
2024/01/27 01:04:13;;;;;;;79.15;43.17;;;;;;;;;;10602961;27;20509;-82
2024/01/27 01:09:15;;;;;;;74.32;41.33;;;;;;;;;;10600679;27;20511;-82
2024/01/27 01:14:18;;;;;;;77.90;44.93;;;;;;;;;;10608029;27;20416;-82
2024/01/27 01:19:21;;;;;;;78.90;42.58;;;;;;;;;;10606184;27;20508;-82
2024/01/27 01:24:24;;;;;;;72.50;41.97;;;;;;;;;;10603163;27;20434;-82
2024/01/27 01:29:26;;;;;;;74.43;42.90;;;;;;;;;;10601816;27;20544;-82
2024/01/27 01:34:31;;;;;;;74.88;42.88;;;;;;;;;;10627180;22;20917;-82
2024/01/27 01:39:34;;;;;;;72.82;42.45;;;;;;;;;;10637254;27;20439;-82
2024/01/27 01:44:36;;;;;;;77.03;42.87;;;;;;;;;;10637287;27;20442;-83
2024/01/27 01:49:40;;;;;;;76.47;42.75;;;;;;;;;;10640563;27;20490;-82
2024/01/27 01:54:42;;;;;;;93.25;50.42;;;;;;;;;;10643991;27;20425;-82
2024/01/27 01:59:45;;;;;;;89.90;49.57;;;;;;;;;;10641767;27;20495;-82
2024/01/27 02:04:49;;;;;;;96.75;51.83;;;;;;;;;;10644014;27;20396;-82
2024/01/27 02:09:51;;;;;;;90.63;50.88;;;;;;;;;;10640677;27;20415;-82
2024/01/27 02:14:53;;;;;;;88.27;48.93;;;;;;;;;;10644268;27;20403;-82
2024/01/27 02:19:57;;;;;;;88.25;48.30;;;;;;;;;;10643540;27;20396;-82
2024/01/27 02:25:01;;;;;;;88.25;49.03;;;;;;;;;;10638794;27;20470;-82
2024/01/27 02:30:04;;;;;;;93.28;51.45;;;;;;;;;;10648032;27;20519;-81
2024/01/27 02:35:08;;;;;;;88.88;47.10;;;;;;;;;;10646057;27;20461;-82
2024/01/27 02:40:12;;;;;;;74.35;42.13;;;;;;;;;;10640987;27;20393;-82
2024/01/27 02:45:14;;;;;;;71.80;40.97;;;;;;;;;;10639240;27;20805;-82
2024/01/27 02:50:17;;;;;;;74.05;40.33;;;;;;;;;;10645217;27;20451;-82
2024/01/27 02:55:21;;;;;;;66.45;38.17;;;;;;;;;;10640992;27;20420;-82
2024/01/27 03:00:23;;;;;;;67.72;38.05;;;;;;;;;;10643359;27;20475;-81
2024/01/27 03:05:26;;;;;;;67.32;37.20;;;;;;;;;;10635449;27;20406;-82
2024/01/27 03:10:31;;;;;;;67.10;36.70;;;;;;;;;;10647443;27;20419;-82
2024/01/27 03:15:33;;;;;;;64.63;38.20;;;;;;;;;;10646790;27;20818;-82
2024/01/27 03:20:35;;;;;;;61.40;37.03;;;;;;;;;;10648220;27;20873;-81
2024/01/27 03:25:39;;;;;;;60.07;36.43;;;;;;;;;;10640643;27;20397;-82
2024/01/27 03:30:42;;;;;;;59.13;34.63;;;;;;;;;;10648396;27;20416;-82
2024/01/27 03:35:44;;;;;;;60.53;35.42;;;;;;;;;;10649449;27;20471;-82
2024/01/27 03:40:48;;;;;;;66.90;38.63;;;;;;;;;;10645884;27;20403;-81
2024/01/27 03:45:50;;;;;;;70.33;40.87;;;;;;;;;;10649884;27;20432;-81
2024/01/27 03:50:52;;;;;;;68.85;40.72;;;;;;;;;;10648487;27;20477;-81
2024/01/27 03:55:58;;;;;;;72.63;39.83;;;;;;;;;;10649369;27;20395;-82
2024/01/27 04:01:01;;;;;;;72.72;43.03;;;;;;;;;;10646853;27;20404;-82
2024/01/27 04:06:03;;;;;;;68.75;39.15;;;;;;;;;;10651063;27;20457;-81
2024/01/27 04:11:08;;;;;;;70.47;39.70;;;;;;;;;;10645850;27;20929;-82
2024/01/27 04:16:10;;;;;;;74.05;41.45;;;;;;;;;;10649658;27;20434;-82
2024/01/27 04:21:13;;;;;;;73.78;40.60;;;;;;;;;;10643376;27;20931;-82
2024/01/27 04:26:17;;;;;;;85.17;45.70;;;;;;;;;;10647044;27;20491;-81
2024/01/27 04:31:19;;;;;;;84.03;45.53;;;;;;;;;;10634305;27;20456;-81
2024/01/27 04:36:28;;;;;;;75.57;43.22;;;;;;;;;;10629978;27;20403;-81
2024/01/27 04:41:32;;;;;;;79.40;45.23;;;;;;;;;;10637261;27;20755;-80
2024/01/27 04:46:35;;;;;;;91.63;52.80;;;;;;;;;;10645170;27;20397;-81
2024/01/27 04:51:37;;;;;;;93.20;53.00;;;;;;;;;;10646941;27;20486;-82
2024/01/27 04:56:41;;;;;;;92.47;53.45;;;;;;;;;;10645115;27;20407;-80
2024/01/27 05:01:46;;;;;;;89.38;51.90;;;;;;;;;;10644214;27;20403;-81
2024/01/27 05:06:49;;;;;;;84.28;48.40;;;;;;;;;;10644370;27;20399;-82
2024/01/27 05:11:53;;;;;;;92.40;51.40;;;;;;;;;;10641525;27;20403;-81
2024/01/27 05:16:55;;;;;;;81.03;49.33;;;;;;;;;;10640888;27;20400;-82
2024/01/27 05:21:58;;;;;;;84.18;49.00;;;;;;;;;;10647277;27;20391;-81
2024/01/27 05:27:02;;;;;;;84.97;49.63;;;;;;;;;;10636766;27;20407;-82
2024/01/27 05:32:05;;;;;;;85.88;50.92;;;;;;;;;;10639557;27;20456;-82
2024/01/27 05:37:07;;;;;;;85.57;50.55;;;;;;;;;;10643322;27;20399;-80
2024/01/27 05:42:11;;;;;;;84.13;49.20;;;;;;;;;;10645453;27;20411;-80
2024/01/27 05:47:13;;;;;;;84.37;49.63;;;;;;;;;;10636630;27;20807;-81
2024/01/27 05:52:16;;;;;;;85.90;51.53;;;;;;;;;;10635308;27;20410;-82
2024/01/27 05:57:20;;;;;;;80.00;47.88;;;;;;;;;;10635906;27;20412;-81
2024/01/27 06:02:22;;;;;;;74.63;45.92;;;;;;;;;;10638609;27;20488;-81
2024/01/27 06:07:25;;;;;;;80.32;48.47;;;;;;;;;;10637556;27;20393;-80
2024/01/27 06:12:29;;;;;;;76.43;46.70;;;;;;;;;;10638484;27;20447;-80
2024/01/27 06:17:31;;;;;;;79.45;46.35;;;;;;;;;;10648453;27;20439;-81
2024/01/27 06:22:33;;;;;;;73.88;44.33;;;;;;;;;;10640110;27;20462;-81
2024/01/27 06:27:38;;;;;;;80.53;47.13;;;;;;;;;;10637374;27;20403;-82
2024/01/27 06:32:40;;;;;;;82.90;47.40;;;;;;;;;;10630576;27;20514;-81
2024/01/27 06:37:42;;;;;;;90.68;53.88;;;;;;;;;;10630483;27;20415;-82
2024/01/27 06:42:46;;;;;;;77.32;48.38;;;;;;;;;;10632113;27;20454;-81
2024/01/27 06:47:48;;;;;;;171.75;85.70;;;;;;;;;;10643781;27;20460;-80
2024/01/27 06:52:52;;;;;;;92.60;51.72;;;;;;;;;;10642333;27;20499;-80
2024/01/27 06:57:55;;;;;;;82.32;47.67;;;;;;;;;;10643758;27;20786;-80
2024/01/27 07:02:59;;;;;;;79.50;47.08;;;;;;;;;;10637860;27;20489;-80
2024/01/27 07:08:02;;;;;;;77.73;46.57;;;;;;;;;;10637507;27;21202;-80
2024/01/27 07:13:07;;;;;;;80.40;47.45;;;;;;;;;;10646460;27;20492;-80
2024/01/27 07:18:10;;;;;;;84.23;49.37;;;;;;;;;;10636921;27;20430;-80
2024/01/27 07:23:12;;;;;;;79.20;46.53;;;;;;;;;;10635040;27;20423;-81
2024/01/27 07:28:18;;;;;;;72.32;42.35;;;;;;;;;;10650122;27;20830;-81
2024/01/27 07:33:20;;;;;;;73.50;42.33;;;;;;;;;;10646323;27;20930;-81
2024/01/27 07:38:23;;;;;;;71.47;42.75;;;;;;;;;;10649812;27;20391;-81
2024/01/27 07:43:27;;;;;;;71.82;43.15;;;;;;;;;;10648675;27;20477;-81
2024/01/27 07:48:29;;;;;;;64.53;40.70;;;;;;;;;;10650519;27;20459;-81
2024/01/27 07:53:31;;;;;;;66.80;40.97;;;;;;;;;;10648325;27;20448;-81
2024/01/27 07:58:35;;;;;;;70.87;42.83;;;;;;;;;;10646031;27;20459;-81
2024/01/27 08:03:37;;;;;;;70.30;42.63;;;;;;;;;;10644583;27;20403;-81
2024/01/27 08:08:40;;;;;;;71.03;43.30;;;;;;;;;;10650973;27;20411;-81
2024/01/27 08:13:44;;;;;;;74.23;43.97;;;;;;;;;;10646062;27;20868;-81
2024/01/27 08:18:46;;;;;;;74.20;45.77;;;;;;;;;;10641272;27;20439;-81
2024/01/27 08:23:48;;;;;;;75.22;45.80;;;;;;;;;;10639472;27;20434;-81
2024/01/27 08:28:54;;;;;;;74.83;46.47;;;;;;;;;;10645717;27;20405;-81
2024/01/27 08:33:57;;;;;;;72.20;45.13;;;;;;;;;;10645887;27;20434;-81
2024/01/27 08:38:59;;;;;;;73.25;45.17;;;;;;;;;;10639194;27;20396;-81
2024/01/27 08:44:03;;;;;;;76.78;45.50;;;;;;;;;;10634527;27;20409;-81
2024/01/27 08:49:05;;;;;;;67.05;40.80;;;;;;;;;;10642997;27;20396;-80
2024/01/27 08:54:08;;;;;;;69.28;41.95;;;;;;;;;;10644633;27;20428;-80
2024/01/27 08:59:11;;;;;;;70.00;42.65;;;;;;;;;;10640480;27;20396;-80
2024/01/27 09:04:14;;;;;;;73.15;43.60;;;;;;;;;;10643124;27;20440;-83
2024/01/27 09:09:16;;;;;;;71.47;42.65;;;;;;;;;;10643413;27;20409;-82
2024/01/27 09:14:20;;;;;;;70.82;40.85;;;;;;;;;;10640672;27;20403;-82
2024/01/27 09:19:22;;;;;;;65.50;39.97;;;;;;;;;;10635103;27;20393;-82
2024/01/27 09:24:25;;;;;;;66.40;40.03;;;;;;;;;;10630722;27;20396;-82
2024/01/27 09:29:29;;;;;;;70.57;40.13;;;;;;;;;;10640897;27;20912;-81
2024/01/27 09:34:32;;;;;;;67.40;39.63;;;;;;;;;;10643003;27;20407;-81
2024/01/27 09:39:34;;;;;;;66.78;40.05;;;;;;;;;;10628285;27;20401;-81
2024/01/27 09:44:40;;;;;;;63.30;39.83;;;;;;;;;;10633433;27;20902;-82
2024/01/27 09:49:43;;;;;;;68.20;40.15;;;;;;;;;;10635077;27;20434;-82
2024/01/27 09:54:46;;;;;;;69.70;40.28;;;;;;;;;;10643662;27;20899;-82
2024/01/27 09:59:50;;;;;;;75.75;41.97;;;;;;;;;;10645903;27;20419;-81
2024/01/27 10:04:55;;;;;;;70.13;41.10;;;;;;;;;;10645201;27;20393;-81
2024/01/27 10:09:57;;;;;;;64.30;36.42;;;;;;;;;;10631201;27;20455;-81
2024/01/27 10:15:02;;;;;;;69.55;37.20;;;;;;;;;;10639980;27;20403;-82
2024/01/27 10:20:08;;;;;;;66.30;35.93;;;;;;;;;;10634287;27;20452;-82
2024/01/27 10:25:10;;;;;;;70.13;37.67;;;;;;;;;;10637960;27;20451;-82
2024/01/27 10:30:19;;;;;;;70.97;37.80;;;;;;;;;;10633674;27;20448;-82
2024/01/27 10:35:22;;;;;;;68.80;38.03;;;;;;;;;;10639457;27;20409;-81
2024/01/27 10:40:25;;;;;;;71.18;38.08;;;;;;;;;;10632081;27;20409;-81
2024/01/27 10:45:34;;;;;;;68.73;36.90;;;;;;;;;;10639259;27;20453;-82
2024/01/27 10:50:38;;;;;;;70.22;37.38;;;;;;;;;;10633959;27;20444;-82
2024/01/27 10:55:43;;;;;;;73.50;36.13;;;;;;;;;;10633339;27;20399;-82
2024/01/27 11:00:48;;;;;;;69.70;35.80;;;;;;;;;;10640758;27;20754;-82
2024/01/27 11:05:53;;;;;;;68.45;36.42;;;;;;;;;;10630576;27;20458;-82
2024/01/27 11:10:56;;;;;;;74.35;37.00;;;;;;;;;;10633327;27;20807;-81
2024/01/27 11:16:00;;;;;;;78.85;39.17;;;;;;;;;;10638619;27;20401;-81
2024/01/27 11:21:02;;;;;;;76.07;38.00;;;;;;;;;;10644045;27;20428;-79
2024/01/27 11:26:06;;;;;;;80.00;39.33;;;;;;;;;;10632319;27;20928;-82
2024/01/27 11:31:10;;;;;;;80.25;38.63;;;;;;;;;;10642817;27;20507;-83
2024/01/27 11:36:21;;;;;;;77.43;37.03;;;;;;;;;;10635420;27;20428;-82
2024/01/27 11:41:30;;;;;;;80.88;37.90;;;;;;;;;;10640669;27;25109;-81
2024/01/27 11:46:34;;;;;;;82.72;38.42;;;;;;;;;;10642464;27;21304;-85
2024/01/27 11:51:36;;;;;;;88.22;40.00;;;;;;;;;;10634556;27;20514;-79
2024/01/27 11:56:39;;;;;;;82.32;39.88;;;;;;;;;;10636536;27;20460;-80
2024/01/27 12:01:43;;;;;;;86.13;39.53;;;;;;;;;;10625251;27;20403;-83
2024/01/27 12:06:45;;;;;;;82.63;40.90;;;;;;;;;;10628384;27;20426;-81
2024/01/27 12:11:47;;;;;;;84.90;38.45;;;;;;;;;;10635868;27;21020;-85
2024/01/27 12:16:53;;;;;;;86.28;39.70;;;;;;;;;;10642573;27;20434;-81
2024/01/27 12:21:55;;;;;;;86.80;39.40;;;;;;;;;;10643049;27;20481;-81
2024/01/27 12:26:58;;;;;;;87.03;39.47;;;;;;;;;;10642530;27;20427;-81
2024/01/27 12:32:02;;;;;;;89.65;41.65;;;;;;;;;;10629359;27;20449;-81
2024/01/27 12:37:04;;;;;;;94.38;42.92;;;;;;;;;;10623276;27;20769;-80
2024/01/27 12:42:07;;;;;;;96.75;43.83;;;;;;;;;;10627015;27;20451;-81
2024/01/27 12:47:10;;;;;;;140.60;58.00;;;;;;;;;;10630157;27;20964;-80
2024/01/27 12:52:13;;;;;;;103.00;44.38;;;;;;;;;;10620881;27;20526;-80
2024/01/27 12:57:17;;;;;;;137.23;59.53;;;;;;;;;;10637231;27;20407;-82
2024/01/27 13:02:21;;;;;;;84.05;38.45;;;;;;;;;;10623461;27;20465;-79
2024/01/27 13:07:23;;;;;;;81.47;36.97;;;;;;;;;;10614530;27;20825;-80
2024/01/27 13:12:26;;;;;;;94.50;43.17;;;;;;;;;;10621894;27;20499;-79
2024/01/27 13:17:30;;;;;;;102.88;49.95;;;;;;;;;;10613544;27;20548;-79
2024/01/27 13:22:32;;;;;;;86.40;40.20;;;;;;;;;;10621811;27;20510;-79
2024/01/27 13:27:34;;;;;;;92.68;41.83;;;;;;;;;;10626221;27;20459;-80
2024/01/27 13:32:38;;;;;;;80.00;37.15;;;;;;;;;;10622706;27;20497;-80
2024/01/27 13:37:40;;;;;;;90.47;40.08;;;;;;;;;;10617673;27;20454;-80
2024/01/27 13:42:45;;;;;;;85.40;39.65;;;;;;;;;;10619479;27;20452;-79
2024/01/27 13:47:48;;;;;;;88.40;40.78;;;;;;;;;;10626881;27;20451;-79
2024/01/27 13:52:51;;;;;;;84.90;41.43;;;;;;;;;;10626815;27;20452;-79
2024/01/27 13:57:54;;;;;;;90.93;42.28;;;;;;;;;;10634533;27;20403;-80
2024/01/27 14:02:58;;;;;;;94.07;43.90;;;;;;;;;;10629066;27;20427;-83
2024/01/27 14:08:00;;;;;;;86.68;42.80;;;;;;;;;;10628216;27;20472;-80
2024/01/27 14:13:04;;;;;;;84.83;41.43;;;;;;;;;;10628607;27;20966;-79
2024/01/27 14:18:09;;;;;;;84.07;40.63;;;;;;;;;;10631749;27;20484;-80
2024/01/27 14:23:11;;;;;;;79.22;38.88;;;;;;;;;;10628427;27;20866;-80
2024/01/27 14:28:14;;;;;;;81.45;40.63;;;;;;;;;;10631518;27;20440;-80
2024/01/27 14:33:20;;;;;;;81.97;40.20;;;;;;;;;;10626895;27;20448;-81
2024/01/27 14:38:23;;;;;;;79.80;42.15;;;;;;;;;;10630865;27;20404;-80
2024/01/27 14:43:26;;;;;;;84.20;42.92;;;;;;;;;;10635327;27;20898;-80
2024/01/27 14:48:30;;;;;;;86.88;44.80;;;;;;;;;;10632227;27;20400;-80
2024/01/27 14:53:32;;;;;;;88.38;43.70;;;;;;;;;;10636076;27;20420;-80
2024/01/27 14:58:35;;;;;;;84.90;42.42;;;;;;;;;;10631301;27;20465;-81
2024/01/27 15:03:38;;;;;;;88.85;39.95;;;;;;;;;;10628268;27;20395;-80
2024/01/27 15:08:41;;;;;;;89.83;41.20;;;;;;;;;;10636685;27;20461;-80
2024/01/27 15:13:44;;;;;;;93.00;42.45;;;;;;;;;;10635534;27;20509;-80
2024/01/27 15:18:50;;;;;;;94.77;43.53;;;;;;;;;;10633031;27;20405;-81
2024/01/27 15:23:52;;;;;;;93.03;44.92;;;;;;;;;;10632728;27;20428;-80
2024/01/27 15:28:54;;;;;;;92.73;43.53;;;;;;;;;;10638430;27;20437;-81
2024/01/27 15:33:58;;;;;;;90.22;42.40;;;;;;;;;;10622129;27;20440;-81
2024/01/27 15:39:01;;;;;;;90.40;43.30;;;;;;;;;;10626758;27;20462;-81
2024/01/27 15:44:03;;;;;;;92.80;45.27;;;;;;;;;;10628414;27;20470;-80
2024/01/27 15:49:07;;;;;;;111.40;50.97;;;;;;;;;;10630054;27;20539;-80
2024/01/27 15:54:10;;;;;;;95.05;44.58;;;;;;;;;;10641955;27;20439;-81
2024/01/27 15:59:13;;;;;;;88.68;45.13;;;;;;;;;;10641423;27;20425;-81
2024/01/27 16:04:17;;;;;;;88.80;42.87;;;;;;;;;;10640068;27;20443;-81
2024/01/27 16:09:19;;;;;;;88.85;44.33;;;;;;;;;;10640373;27;20403;-81
2024/01/27 16:14:22;;;;;;;88.15;43.42;;;;;;;;;;10639549;27;20524;-81
2024/01/27 16:19:26;;;;;;;79.53;43.13;;;;;;;;;;10631672;27;20468;-81
2024/01/27 16:24:28;;;;;;;79.80;43.67;;;;;;;;;;10635967;27;20468;-80
2024/01/27 16:29:30;;;;;;;72.65;36.13;;;;;;;;;;10637886;27;20482;-81
2024/01/27 16:34:34;;;;;;;80.20;40.97;;;;;;;;;;10640484;27;20563;-81
2024/01/27 16:39:36;;;;;;;79.95;41.72;;;;;;;;;;10637729;27;20831;-81
2024/01/27 16:44:39;;;;;;;89.07;45.63;;;;;;;;;;10635963;27;20527;-81
2024/01/27 16:49:42;;;;;;;82.07;42.33;;;;;;;;;;10651354;27;20391;-80
2024/01/27 16:54:45;;;;;;;92.40;45.93;;;;;;;;;;10636490;27;20918;-80
2024/01/27 16:59:47;;;;;;;94.35;47.78;;;;;;;;;;10637944;27;20401;-81
2024/01/27 17:04:52;;;;;;;106.07;50.77;;;;;;;;;;10638700;27;20761;-81
2024/01/27 17:09:55;;;;;;;105.38;52.20;;;;;;;;;;10640577;27;20454;-81
2024/01/27 17:15:04;;;;;;;100.03;49.63;;;;;;;;;;10635260;27;20442;-81
2024/01/27 17:20:09;;;;;;;93.80;51.40;;;;;;;;;;10638360;27;20395;-80
2024/01/27 17:25:11;;;;;;;89.07;49.27;;;;;;;;;;10637737;27;20928;-80
2024/01/27 17:30:20;;;;;;;91.88;49.90;;;;;;;;;;10637422;27;20985;-81
2024/01/27 17:35:26;;;;;;;86.00;48.03;;;;;;;;;;10628917;27;20967;-82
2024/01/27 17:40:29;;;;;;;96.82;50.55;;;;;;;;;;10627058;27;20433;-81
2024/01/27 17:45:32;;;;;;;88.55;49.10;;;;;;;;;;10642837;27;20461;-82
2024/01/27 17:50:36;;;;;;;83.57;46.97;;;;;;;;;;10640421;27;20844;-81
2024/01/27 17:55:38;;;;;;;85.50;47.63;;;;;;;;;;10635972;27;20450;-80
2024/01/27 18:00:40;;;;;;;88.47;48.60;;;;;;;;;;10635346;27;20411;-81
2024/01/27 18:05:49;;;;;;;103.97;52.58;;;;;;;;;;10637652;27;20443;-81
2024/01/27 18:10:51;;;;;;;106.27;57.07;;;;;;;;;;10635654;27;20507;-81
2024/01/27 18:15:54;;;;;;;107.47;58.58;;;;;;;;;;10634639;27;20507;-83
2024/01/27 18:20:58;;;;;;;108.38;59.70;;;;;;;;;;10640350;27;20483;-83
2024/01/27 18:26:00;;;;;;;110.53;58.90;;;;;;;;;;10638425;27;20439;-83
2024/01/27 18:31:03;;;;;;;102.45;58.33;;;;;;;;;;10627925;27;21640;-83
2024/01/27 18:36:07;;;;;;;103.23;57.87;;;;;;;;;;10640996;27;20461;-83
2024/01/27 18:41:09;;;;;;;111.77;62.37;;;;;;;;;;10643065;27;20435;-81
2024/01/27 18:46:12;;;;;;;108.85;59.63;;;;;;;;;;10647458;27;20438;-81
2024/01/27 18:51:16;;;;;;;116.65;64.07;;;;;;;;;;10646135;27;21646;-81
2024/01/27 18:56:19;;;;;;;120.07;65.63;;;;;;;;;;10640165;27;20548;-80
2024/01/27 19:01:21;;;;;;;119.80;65.03;;;;;;;;;;10644937;27;20496;-82
2024/01/27 19:06:25;;;;;;;117.72;65.20;;;;;;;;;;10642713;27;20975;-82
2024/01/27 19:11:28;;;;;;;121.28;65.85;;;;;;;;;;10645729;27;20838;-81
2024/01/27 19:16:30;;;;;;;114.20;65.72;;;;;;;;;;10637562;27;20447;-79
2024/01/27 19:21:34;;;;;;;127.45;69.50;;;;;;;;;;10648262;27;20955;-79
2024/01/27 19:26:36;;;;;;;117.97;64.93;;;;;;;;;;10640484;27;20451;-80
2024/01/27 19:31:38;;;;;;;115.93;65.40;;;;;;;;;;10635694;27;20436;-79
2024/01/27 19:36:42;;;;;;;116.55;69.63;;;;;;;;;;10644310;27;20462;-79
2024/01/27 19:41:45;;;;;;;111.27;64.27;;;;;;;;;;10645649;27;20408;-79
2024/01/27 19:46:49;;;;;;;122.57;66.30;;;;;;;;;;10637570;27;20436;-79
2024/01/27 19:51:53;;;;;;;122.00;70.47;;;;;;;;;;10630193;27;20432;-79
2024/01/27 19:56:55;;;;;;;135.80;72.13;;;;;;;;;;10627447;27;20448;-79
2024/01/27 20:01:58;;;;;;;121.07;68.30;;;;;;;;;;10627020;27;20897;-80
2024/01/27 20:07:01;;;;;;;120.40;66.68;;;;;;;;;;10628331;27;20491;-78
2024/01/27 20:12:06;;;;;;;115.95;65.53;;;;;;;;;;10627268;27;20447;-81
2024/01/27 20:17:09;;;;;;;123.68;66.72;;;;;;;;;;10635479;27;20435;-81
2024/01/27 20:22:13;;;;;;;110.10;62.95;;;;;;;;;;10641524;27;20441;-80
2024/01/27 20:27:16;;;;;;;114.90;64.33;;;;;;;;;;10634268;27;20468;-80
2024/01/27 20:32:18;;;;;;;119.80;65.07;;;;;;;;;;10632324;27;20405;-80
2024/01/27 20:37:22;;;;;;;115.05;66.32;;;;;;;;;;10637855;27;20416;-82
2024/01/27 20:42:24;;;;;;;122.40;68.83;;;;;;;;;;10635522;27;20442;-82
2024/01/27 20:47:26;;;;;;;116.22;65.30;;;;;;;;;;10633981;27;20425;-82
2024/01/27 20:52:30;;;;;;;120.25;65.20;;;;;;;;;;10632810;27;20426;-83
2024/01/27 20:57:32;;;;;;;126.13;67.70;;;;;;;;;;10636242;27;20506;-83
2024/01/27 21:02:35;;;;;;;118.37;63.97;;;;;;;;;;10637282;27;20901;-83
2024/01/27 21:07:39;;;;;;;121.78;64.80;;;;;;;;;;10623349;27;20511;-81
2024/01/27 21:12:42;;;;;;;114.40;60.83;;;;;;;;;;10620123;27;20532;-81
2024/01/27 21:17:46;;;;;;;117.50;63.83;;;;;;;;;;10631922;27;20448;-81
2024/01/27 21:22:49;;;;;;;115.43;62.05;;;;;;;;;;10625309;27;20503;-81
2024/01/27 21:27:52;;;;;;;111.72;59.75;;;;;;;;;;10629457;27;20504;-82
2024/01/27 21:32:55;;;;;;;109.53;60.05;;;;;;;;;;10634990;27;20467;-81
2024/01/27 21:37:59;;;;;;;98.68;55.67;;;;;;;;;;10616262;27;20442;-81
2024/01/27 21:43:01;;;;;;;96.05;52.60;;;;;;;;;;10623338;27;20951;-84
2024/01/27 21:48:06;;;;;;;94.03;51.78;;;;;;;;;;10634307;27;20893;-84
2024/01/27 21:53:10;;;;;;;82.97;47.47;;;;;;;;;;10623176;27;20483;-84
2024/01/27 21:58:12;;;;;;;84.90;47.77;;;;;;;;;;10627020;27;20517;-83
2024/01/27 22:03:15;;;;;;;81.95;47.35;;;;;;;;;;10624615;27;20941;-83
2024/01/27 22:08:18;;;;;;;74.47;39.87;;;;;;;;;;10622153;27;20436;-83
2024/01/27 22:13:21;;;;;;;70.47;38.85;;;;;;;;;;10631141;27;20427;-83
2024/01/27 22:18:23;;;;;;;63.53;36.30;;;;;;;;;;10645413;27;20495;-83
2024/01/27 22:23:27;;;;;;;60.25;35.13;;;;;;;;;;10641368;27;20480;-83
2024/01/27 22:28:29;;;;;;;57.55;31.92;;;;;;;;;;10651528;27;20407;-84
2024/01/27 22:33:32;;;;;;;54.88;32.25;;;;;;;;;;10630607;27;20460;-84
2024/01/27 22:38:35;;;;;;;52.40;30.55;;;;;;;;;;10633611;27;20793;-83
2024/01/27 22:43:38;;;;;;;50.50;29.77;;;;;;;;;;10641567;27;20983;-83
2024/01/27 22:48:40;;;;;;;47.83;26.53;;;;;;;;;;10633262;27;20903;-83
2024/01/27 22:53:44;;;;;;;45.25;26.23;;;;;;;;;;10632308;27;20440;-83
2024/01/27 22:58:47;;;;;;;48.30;26.60;;;;;;;;;;10641117;27;20487;-83
2024/01/27 23:03:49;;;;;;;46.63;26.47;;;;;;;;;;10637060;27;20880;-83
2024/01/27 23:08:53;;;;;;;46.88;28.40;;;;;;;;;;10639670;27;20387;-83
2024/01/27 23:13:55;;;;;;;50.95;28.63;;;;;;;;;;10644595;27;20411;-81
2024/01/27 23:18:58;;;;;;;52.78;30.75;;;;;;;;;;10631432;27;20397;-83
2024/01/27 23:24:02;;;;;;;53.97;30.13;;;;;;;;;;10636943;27;20467;-84
2024/01/27 23:29:05;;;;;;;75.95;41.60;;;;;;;;;;10641567;27;20428;-83
2024/01/27 23:34:07;;;;;;;77.60;43.35;;;;;;;;;;10642370;27;20448;-83
2024/01/27 23:39:12;;;;;;;81.28;47.45;;;;;;;;;;10643410;27;20435;-83
2024/01/27 23:44:14;;;;;;;86.13;47.10;;;;;;;;;;10652590;27;21124;-83
2024/01/27 23:49:16;;;;;;;93.27;51.07;;;;;;;;;;10653594;27;20822;-81
2024/01/27 23:54:20;;;;;;;90.68;50.42;;;;;;;;;;10649302;27;20427;-83
2024/01/27 23:59:23;;;;;;;101.47;54.45;;;;;;;;;;10646959;27;20463;-81
